Time;durP1;ratioP1;P1;durP2;ratioP2;P2;SDS_P1;SDS_P2;PMS_P1;PMS_P2;Temp;Humidity;BMP_temperature;BMP_pressure;BME280_temperature;BME280_humidity;BME280_pressure;Samples;Min_cycle;Max_cycle;Signal;HPM_P1;HPM_P2
2022/11/02 00:01:30;;;;;;;22.92;3.97;;;;;;;;;;6307675;22;20006;-91
2022/11/02 00:03:56;;;;;;;20.30;4.85;;;;;;;;;;6335238;22;19998;-90
2022/11/02 00:06:22;;;;;;;26.48;4.75;;;;;;;;;;6307488;22;20086;-92
2022/11/02 00:08:48;;;;;;;16.80;3.70;;;;;;;;;;6307667;22;20014;-90
2022/11/02 00:11:14;;;;;;;21.40;3.60;;;;;;;;;;6308202;22;20034;-90
2022/11/02 00:13:40;;;;;;;15.13;3.75;;;;;;;;;;6336434;22;19998;-89
2022/11/02 00:16:08;;;;;;;19.17;4.10;;;;;;;;;;6308514;22;20423;-89
2022/11/02 00:18:35;;;;;;;14.80;3.78;;;;;;;;;;6307907;22;20322;-91
2022/11/02 00:21:01;;;;;;;20.77;4.00;;;;;;;;;;6335007;22;19995;-90
2022/11/02 00:23:28;;;;;;;14.52;3.75;;;;;;;;;;6335480;22;20002;-90
2022/11/02 00:25:54;;;;;;;16.75;4.28;;;;;;;;;;6335513;22;19995;-90
2022/11/02 00:28:20;;;;;;;19.05;3.75;;;;;;;;;;6307725;22;20007;-90
2022/11/02 00:30:46;;;;;;;25.27;5.30;;;;;;;;;;6307605;22;20094;-89
2022/11/02 00:33:12;;;;;;;20.60;3.83;;;;;;;;;;6308413;22;20320;-90
2022/11/02 00:35:38;;;;;;;18.88;4.25;;;;;;;;;;6307577;22;20030;-90
2022/11/02 00:38:04;;;;;;;22.08;3.45;;;;;;;;;;6308003;22;19999;-90
2022/11/02 00:40:31;;;;;;;25.08;3.95;;;;;;;;;;6307644;22;20090;-91
2022/11/02 00:42:57;;;;;;;22.13;3.90;;;;;;;;;;6335206;22;20031;-91
2022/11/02 00:45:23;;;;;;;20.95;3.60;;;;;;;;;;6335399;22;19999;-91
2022/11/02 00:47:50;;;;;;;21.42;4.03;;;;;;;;;;6307641;22;20442;-91
2022/11/02 00:50:16;;;;;;;25.60;4.10;;;;;;;;;;6335443;22;20006;-91
2022/11/02 00:52:42;;;;;;;23.42;3.83;;;;;;;;;;6308588;22;20026;-90
2022/11/02 00:55:09;;;;;;;21.80;4.25;;;;;;;;;;6307293;22;20011;-91
2022/11/02 00:57:36;;;;;;;19.83;3.72;;;;;;;;;;6307554;22;19999;-91
2022/11/02 01:00:03;;;;;;;22.15;4.28;;;;;;;;;;6307792;22;20089;-90
2022/11/02 01:02:29;;;;;;;15.88;3.13;;;;;;;;;;6307472;22;20003;-90
2022/11/02 01:04:55;;;;;;;21.33;3.78;;;;;;;;;;6307435;22;20056;-90
2022/11/02 01:07:22;;;;;;;25.40;4.47;;;;;;;;;;6307227;22;19999;-91
2022/11/02 01:09:48;;;;;;;27.02;3.72;;;;;;;;;;6335022;22;20013;-92
2022/11/02 01:12:14;;;;;;;23.15;4.03;;;;;;;;;;6308213;22;19999;-90
2022/11/02 01:14:40;;;;;;;19.33;4.00;;;;;;;;;;6307119;22;20025;-90
2022/11/02 01:17:06;;;;;;;18.90;3.85;;;;;;;;;;6334588;22;20029;-90
2022/11/02 01:19:32;;;;;;;27.55;4.53;;;;;;;;;;6334503;22;20331;-91
2022/11/02 01:21:58;;;;;;;18.90;4.38;;;;;;;;;;6307290;22;20006;-90
2022/11/02 01:24:24;;;;;;;19.80;3.53;;;;;;;;;;6307327;22;20002;-90
2022/11/02 01:26:50;;;;;;;20.05;3.58;;;;;;;;;;6307675;22;19999;-90
2022/11/02 01:29:17;;;;;;;17.77;3.40;;;;;;;;;;6335767;22;20086;-90
2022/11/02 01:31:43;;;;;;;21.83;4.40;;;;;;;;;;6335230;22;19995;-90
2022/11/02 01:34:10;;;;;;;23.65;5.40;;;;;;;;;;6309064;22;20018;-90
2022/11/02 01:36:36;;;;;;;18.17;3.80;;;;;;;;;;6340789;22;20025;-90
2022/11/02 01:39:03;;;;;;;28.17;4.15;;;;;;;;;;6340765;22;19999;-90
2022/11/02 01:41:29;;;;;;;27.25;3.85;;;;;;;;;;6340443;22;20003;-91
2022/11/02 01:43:57;;;;;;;17.35;3.85;;;;;;;;;;6334549;22;20006;-91
2022/11/02 01:46:27;;;;;;;22.85;3.85;;;;;;;;;;6334727;22;20069;-89
2022/11/02 01:48:58;;;;;;;17.83;3.58;;;;;;;;;;6306901;22;20007;-90
2022/11/02 01:51:30;;;;;;;21.33;4.03;;;;;;;;;;6306867;22;20089;-90
2022/11/02 01:53:57;;;;;;;20.35;3.70;;;;;;;;;;6307474;22;20044;-90
2022/11/02 01:56:24;;;;;;;23.83;4.03;;;;;;;;;;6306846;22;20060;-89
2022/11/02 01:58:56;;;;;;;17.77;3.20;;;;;;;;;;6307153;22;20006;-90
2022/11/02 02:01:23;;;;;;;16.85;3.80;;;;;;;;;;6307287;22;20423;-90
2022/11/02 02:03:49;;;;;;;23.67;4.10;;;;;;;;;;6308198;22;20098;-92
2022/11/02 02:06:16;;;;;;;25.75;4.10;;;;;;;;;;6336626;22;19999;-90
2022/11/02 02:08:44;;;;;;;24.38;4.10;;;;;;;;;;6308988;22;20026;-90
2022/11/02 02:11:29;;;;;;;20.95;3.45;;;;;;;;;;6336524;22;20268;-90
2022/11/02 02:14:00;;;;;;;25.88;3.30;;;;;;;;;;6309561;22;20097;-90
2022/11/02 02:16:32;;;;;;;21.48;3.55;;;;;;;;;;6336440;22;19999;-90
2022/11/02 02:19:00;;;;;;;21.88;3.90;;;;;;;;;;6336305;22;20003;-91
2022/11/02 02:21:26;;;;;;;;;;;;;;;;;;6309465;22;19999;-90
2022/11/02 02:23:55;;;;;;;26.77;3.60;;;;;;;;;;6308850;22;20286;-90
2022/11/02 02:26:27;;;;;;;18.30;3.40;;;;;;;;;;6309001;22;20007;-90
2022/11/02 02:28:59;;;;;;;17.75;3.75;;;;;;;;;;6308407;22;20018;-90
2022/11/02 02:31:25;;;;;;;22.13;3.95;;;;;;;;;;6336364;22;19999;-89
2022/11/02 02:34:14;;;;;;;29.98;4.13;;;;;;;;;;6337205;22;20339;-91
2022/11/02 02:36:47;;;;;;;23.92;4.18;;;;;;;;;;6316440;22;20129;-90
2022/11/02 02:39:31;;;;;;;20.25;3.35;;;;;;;;;;6308948;22;20374;-89
2022/11/02 02:42:05;;;;;;;11.63;3.28;;;;;;;;;;6308805;22;20438;-90
2022/11/02 02:44:33;;;;;;;21.92;3.40;;;;;;;;;;6308552;22;20042;-92
2022/11/02 02:46:59;;;;;;;;;;;;;;;;;;6309010;22;20034;-90
2022/11/02 02:49:28;;;;;;;13.80;2.83;;;;;;;;;;6308697;22;19906;-89
2022/11/02 02:51:56;;;;;;;16.40;3.00;;;;;;;;;;6336016;22;20440;-89
2022/11/02 02:54:24;;;;;;;19.95;3.28;;;;;;;;;;6309040;22;20024;-89
2022/11/02 02:56:53;;;;;;;12.70;2.75;;;;;;;;;;6309290;22;20003;-90
2022/11/02 02:59:31;;;;;;;21.35;3.45;;;;;;;;;;6336695;22;20081;-90
2022/11/02 03:01:57;;;;;;;16.38;3.53;;;;;;;;;;6308866;22;20504;-92
2022/11/02 03:04:25;;;;;;;13.57;3.15;;;;;;;;;;6309323;22;20033;-93
2022/11/02 03:06:54;;;;;;;18.38;3.55;;;;;;;;;;6310024;22;20042;-91
2022/11/02 03:09:20;;;;;;;22.65;4.15;;;;;;;;;;6309493;22;20015;-90
2022/11/02 03:11:46;;;;;;;13.23;3.60;;;;;;;;;;6308441;22;19999;-90
2022/11/02 03:14:27;;;;;;;15.38;3.17;;;;;;;;;;6309029;22;20093;-92
2022/11/02 03:17:08;;;;;;;17.05;3.22;;;;;;;;;;6309560;22;19999;-92
2022/11/02 03:19:41;;;;;;;19.17;2.75;;;;;;;;;;6309331;22;20085;-90
2022/11/02 03:22:20;;;;;;;15.05;2.63;;;;;;;;;;6309113;22;20003;-90
2022/11/02 03:24:52;;;;;;;15.60;3.70;;;;;;;;;;6308951;22;20002;-93
2022/11/02 03:27:22;;;;;;;15.10;3.33;;;;;;;;;;6309162;22;20002;-90
2022/11/02 03:30:07;;;;;;;16.08;3.47;;;;;;;;;;6308128;22;20014;-92
2022/11/02 03:32:44;;;;;;;20.10;3.28;;;;;;;;;;6308340;22;20424;-91
2022/11/02 03:35:33;;;;;;;12.50;2.97;;;;;;;;;;6336864;22;19999;-92
2022/11/02 03:38:01;;;;;;;14.00;3.22;;;;;;;;;;6337177;22;20454;-92
2022/11/02 03:40:48;;;;;;;18.35;2.95;;;;;;;;;;6310044;22;20128;-91
2022/11/02 03:43:15;;;;;;;18.92;2.88;;;;;;;;;;6309295;22;20007;-90
2022/11/02 03:45:44;;;;;;;18.83;3.30;;;;;;;;;;6309660;22;20016;-93
2022/11/02 03:48:11;;;;;;;16.10;2.80;;;;;;;;;;6309448;22;20014;-90
2022/11/02 03:50:40;;;;;;;16.87;3.00;;;;;;;;;;6309094;22;20017;-91
2022/11/02 03:53:09;;;;;;;12.38;2.40;;;;;;;;;;6337642;22;19999;-92
2022/11/02 03:55:37;;;;;;;16.13;3.00;;;;;;;;;;6309715;22;20429;-91
2022/11/02 03:58:06;;;;;;;15.43;2.78;;;;;;;;;;6309672;22;19999;-91
2022/11/02 04:00:35;;;;;;;16.95;3.03;;;;;;;;;;6309669;22;20411;-92
2022/11/02 04:03:18;;;;;;;;;;;;;;;;;;;;;
2022/11/02 04:06:14;;;;;;;;;;;;;;;;;;;;;
2022/11/02 04:09:02;;;;;;;15.98;2.70;;;;;;;;;;6339016;22;20095;-92
2022/11/02 04:14:46;;;;;;;18.48;3.08;;;;;;;;;;6350648;22;20024;-90
2022/11/02 04:20:10;;;;;;;10.45;2.20;;;;;;;;;;6339340;22;20032;-89
2022/11/02 04:25:48;;;;;;;13.20;2.92;;;;;;;;;;6337037;22;20026;-92
2022/11/02 04:31:33;;;;;;;;;;;;;;;;;;;;;
2022/11/02 04:34:01;;;;;;;8.43;2.08;;;;;;;;;;6276562;22;20019;-90
2022/11/02 04:36:31;;;;;;;9.88;2.70;;;;;;;;;;6274954;22;20031;-91
2022/11/02 04:38:57;;;;;;;13.40;2.78;;;;;;;;;;6275174;22;20029;-89
2022/11/02 04:41:42;;;;;;;12.75;2.47;;;;;;;;;;6274923;22;20003;-90
2022/11/02 04:44:13;;;;;;;13.85;2.30;;;;;;;;;;6274184;22;20007;-90
2022/11/02 04:46:42;;;;;;;9.25;2.45;;;;;;;;;;6274731;22;20007;-89
2022/11/02 04:49:08;;;;;;;9.25;2.20;;;;;;;;;;6274499;22;20015;-91
2022/11/02 04:51:35;;;;;;;12.77;2.38;;;;;;;;;;6301194;22;20123;-90
2022/11/02 04:54:01;;;;;;;17.95;3.30;;;;;;;;;;6274175;22;20003;-90
2022/11/02 04:56:28;;;;;;;12.00;2.83;;;;;;;;;;6275590;22;20003;-90
2022/11/02 04:59:05;;;;;;;12.98;2.97;;;8.60;99.90;;;;;;6303224;22;20079;-91
2022/11/02 05:01:33;;;;;;;11.57;2.60;;;;;;;;;;6276332;22;20013;-89
2022/11/02 05:04:02;;;;;;;12.23;3.03;;;;;;;;;;6279238;22;20060;-91
2022/11/02 05:06:27;;;;;;;;;;;8.60;99.90;;;;;;6279359;22;20011;-93
2022/11/02 05:09:18;;;;;;;10.27;2.50;;;8.50;99.90;;;;;;6277292;22;19917;-94
2022/11/02 05:11:47;;;;;;;13.35;2.88;;;;;;;;;;6274973;22;20060;-91
2022/11/02 05:14:15;;;;;;;;;;;8.40;99.90;;;;;;6274762;22;20007;-92
2022/11/02 05:16:47;;;;;;;12.48;3.13;;;;;;;;;;6301732;22;20312;-92
2022/11/02 05:19:15;;;;;;;15.88;5.55;;;;;;;;;;6274381;22;20494;-92
2022/11/02 05:21:48;;;;;;;;;;;8.30;99.90;;;;;;6274924;22;20042;-93
2022/11/02 05:24:14;;;;;;;15.93;4.32;;;;;;;;;;6274901;22;19899;-90
2022/11/02 05:26:41;;;;;;;17.10;5.13;;;;;;;;;;6274199;22;20034;-89
2022/11/02 05:29:10;;;;;;;14.63;5.03;;;;;;;;;;6301248;22;20007;-93
2022/11/02 05:31:36;;;;;;;17.85;5.13;;;;;;;;;;6273645;22;20042;-92
2022/11/02 05:34:02;;;;;;;16.52;3.88;;;;;;;;;;6274877;22;20006;-90
2022/11/02 05:36:37;;;;;;;;;;;;;;;;;;;;;
2022/11/02 05:39:04;;;;;;;10.40;2.85;;;;;;;;;;6300200;22;20388;-90
2022/11/02 05:41:30;;;;;;;7.95;2.03;;;;;;;;;;6273425;22;20347;-91
2022/11/02 05:43:56;;;;;;;17.30;2.83;;;;;;;;;;6273791;22;20009;-92
2022/11/02 05:46:22;;;;;;;11.90;2.42;;;;;;;;;;6276956;22;20027;-90
2022/11/02 05:48:48;;;;;;;12.20;2.33;;;;;;;;;;6306138;22;20003;-90
2022/11/02 05:51:14;;;;;;;16.67;2.42;;;;;;;;;;6316112;22;20010;-90
2022/11/02 05:53:40;;;;;;;10.45;2.83;;;;;;;;;;6280263;22;19999;-91
2022/11/02 05:56:13;;;;;;;11.63;2.38;;;8.20;99.90;;;;;;6304808;22;20004;-96
2022/11/02 05:58:57;;;;;;;11.52;2.63;;;;;;;;;;6310169;22;20003;-94
2022/11/02 06:01:26;;;;;;;9.18;2.60;;;;;;;;;;6313080;22;20010;-90
2022/11/02 06:04:13;;;;;;;10.18;2.30;;;;;;;;;;6308160;22;20106;-91
2022/11/02 06:06:38;;;;;;;13.77;2.67;;;;;;;;;;6303858;22;20081;-92
2022/11/02 06:09:04;;;;;;;11.93;2.75;;;;;;;;;;6275717;22;20015;-89
2022/11/02 06:11:30;;;;;;;13.43;3.00;;;;;;;;;;6275969;22;20447;-90
2022/11/02 06:13:57;;;;;;;11.35;2.28;;;;;;;;;;6276466;22;20003;-90
2022/11/02 06:16:23;;;;;;;13.48;2.83;;;;;;;;;;6303653;22;20830;-90
2022/11/02 06:18:49;;;;;;;16.17;3.08;;;;;;;;;;6302834;22;20018;-93
2022/11/02 06:21:15;;;;;;;20.38;2.83;;;;;;;;;;6274098;22;20023;-89
2022/11/02 06:23:42;;;;;;;12.65;2.60;;;;;;;;;;6273177;22;20086;-89
2022/11/02 06:26:08;;;;;;;16.67;3.47;;;8.10;99.90;;;;;;6301566;22;20025;-93
2022/11/02 06:28:34;;;;;;;13.60;2.60;;;;;;;;;;6301352;22;19999;-91
2022/11/02 06:31:02;;;;;;;14.52;2.88;;;8.20;99.90;;;;;;6306793;22;20000;-90
2022/11/02 06:33:29;;;;;;;14.48;3.35;;;;;;;;;;6285134;22;20022;-93
2022/11/02 06:35:55;;;;;;;15.45;2.90;;;;;;;;;;6307601;22;19999;-91
2022/11/02 06:38:25;;;;;;;12.07;2.95;;;;;;;;;;6295525;22;19999;-90
2022/11/02 06:40:54;;;;;;;10.48;2.80;;;;;;;;;;6280583;22;20014;-93
2022/11/02 06:43:20;;;;;;;17.77;3.35;;;;;;;;;;6279337;22;20049;-90
2022/11/02 06:45:46;;;;;;;15.35;3.00;;;;;;;;;;6310537;22;20004;-91
2022/11/02 06:48:15;;;;;;;16.02;3.35;;;;;;;;;;6283710;22;20098;-91
2022/11/02 06:50:44;;;;;;;13.30;2.55;;;;;;;;;;6285356;22;20015;-91
2022/11/02 06:53:28;;;;;;;10.18;2.63;;;;;;;;;;6282260;22;20003;-92
2022/11/02 06:56:47;;;;;;;;;;;;;;;;;;;;;
2022/11/02 07:13:13;;;;;;;;;;;;;;;;;;;;;
2022/11/02 07:16:38;;;;;;;;;;;;;;;;;;;;;
2022/11/02 07:23:09;;;;;;;;;;;;;;;;;;;;;
2022/11/02 07:26:27;;;;;;;8.82;2.40;;;8.50;99.90;;;;;;5998476;23;20087;-91
2022/11/02 07:38:51;;;;;;;10.38;2.60;;;;;;;;;;6034841;23;20003;-90
2022/11/02 07:42:10;;;;;;;;;;;;;;;;;;;;;
2022/11/02 07:50:58;;;;;;;;;;;;;;;;;;;;;
2022/11/02 08:14:56;;;;;;;;;;;;;;;;;;;;;
2022/11/02 08:34:44;;;;;;;;;;;;;;;;;;;;;
2022/11/02 09:11:15;;;;;;;19.60;4.55;;;11.20;99.90;;;;;;5843743;24;20476;-93
2022/11/02 09:45:27;;;;;;;;;;;12.20;99.90;;;;;;5721701;25;20439;-91
2022/11/02 10:10:13;;;;;;;32.63;4.82;;;13.20;99.90;;;;;;5625335;25;20120;-90
2022/11/02 10:12:57;;;;;;;32.85;4.65;;;;;;;;;;5704967;24;20625;-95
2022/11/02 10:32:47;;;;;;;34.40;7.55;;;13.80;99.90;;;;;;5676346;25;20022;-91
2022/11/02 10:35:38;;;;;;;24.10;6.13;;;13.90;99.90;;;;;;5660283;25;20012;-92
2022/11/02 10:38:32;;;;;;;28.08;9.02;;;13.90;99.90;;;;;;5918180;24;20123;-91
2022/11/02 10:41:11;;;;;;;26.67;5.00;;;17.20;99.90;;;;;;5974160;23;20031;-91
2022/11/02 10:44:21;;;;;;;25.52;4.75;;;13.80;99.90;;;;;;6107653;23;20012;-91
2022/11/02 10:46:55;;;;;;;29.10;4.47;;;13.70;99.90;;;;;;6106927;23;20009;-92
2022/11/02 10:49:43;;;;;;;24.85;5.72;;;13.70;99.90;;;;;;6122555;23;20076;-92
2022/11/02 10:52:17;;;;;;;22.80;4.32;;;13.90;99.90;;;;;;6191529;22;20034;-94
2022/11/02 10:54:54;;;;;;;32.75;5.22;;;;;;;;;;6279408;22;20003;-91
2022/11/02 10:57:36;;;;;;;;;;;;;;;;;;;;;
2022/11/02 11:00:24;;;;;;;22.27;3.80;;;11.10;99.90;;;;;;6306699;22;20078;-90
2022/11/02 11:03:10;;;;;;;27.50;4.00;;;11.20;99.90;;;;;;6305155;22;20015;-90
2022/11/02 11:06:03;;;;;;;;;;;;;;;;;;;;;
2022/11/02 11:08:36;;;;;;;27.52;4.30;;;;;;;;;;6305405;22;20074;-92
2022/11/02 11:11:31;;;;;;;25.83;4.35;;;;;;;;;;6284362;22;20017;-92
2022/11/02 11:14:09;;;;;;;20.23;3.97;;;;;;;;;;6284550;22;20003;-94
2022/11/02 11:16:46;;;;;;;;;;;14.20;99.90;;;;;;6283949;22;20061;-91
2022/11/02 11:19:44;;;;;;;15.82;3.70;;;11.90;99.90;;;;;;6284153;22;19899;-90
2022/11/02 11:22:35;;;;;;;;;;;;;;;;;;;;;
2022/11/02 11:25:24;;;;;;;25.35;4.45;;;14.40;99.90;;;;;;6305139;22;20107;-91
2022/11/02 11:27:53;;;;;;;;;;;14.40;99.90;;;;;;6305902;22;20003;-92
2022/11/02 11:30:22;;;;;;;18.40;3.50;;;;;;;;;;6305323;22;19913;-91
2022/11/02 11:32:53;;;;;;;22.50;3.38;;;;;;;;;;6276655;22;20003;-91
2022/11/02 11:36:12;;;;;;;;;;;;;;;;;;;;;
2022/11/02 11:49:27;;;;;;;25.02;3.72;;;14.60;99.90;;;;;;6087619;23;20007;-93
2022/11/02 11:52:48;;;;;;;25.73;3.45;;;14.70;99.90;;;;;;6049507;23;20078;-94
2022/11/02 11:56:07;;;;;;;27.25;4.45;;;14.80;99.90;;;;;;6069354;23;20001;-91
2022/11/02 12:06:26;;;;;;;;;;;;;;;;;;;;;
2022/11/02 12:19:00;;;;;;;;;;;;;;;;;;;;;
2022/11/02 12:22:12;;;;;;;18.05;3.20;;;15.60;99.90;;;;;;6038486;23;20079;-92
2022/11/02 12:28:54;;;;;;;;;;;;;;;;;;;;;
2022/11/02 12:32:12;;;;;;;16.40;3.22;;;15.80;99.90;;;;;;5951635;24;20095;-90
2022/11/02 12:35:13;;;;;;;19.27;4.03;;;15.30;99.90;;;;;;6035539;23;20004;-90
2022/11/02 12:38:33;;;;;;;20.67;3.63;;;15.60;99.90;;;;;;6150791;23;20088;-90
2022/11/02 12:41:35;;;;;;;20.25;3.15;;;15.60;99.90;;;;;;6098042;23;20001;-92
2022/11/02 12:44:37;;;;;;;22.88;3.13;;;15.50;99.90;;;;;;6177868;23;20036;-92
2022/11/02 12:47:17;;;;;;;23.13;3.72;;;15.40;99.90;;;;;;6183724;23;20009;-91
2022/11/02 12:49:51;;;;;;;17.00;3.63;;;15.40;99.90;;;;;;6186878;23;20020;-89
2022/11/02 12:52:50;;;;;;;18.42;3.70;;;16.30;99.90;;;;;;6188038;23;20081;-90
2022/11/02 12:55:20;;;;;;;26.05;4.07;;;15.30;99.90;;;;;;6219822;23;20009;-90
2022/11/02 12:57:47;;;;;;;21.20;3.72;;;15.30;99.90;;;;;;6194479;23;20392;-90
2022/11/02 13:03:27;;;;;;;22.65;3.80;;;15.20;99.90;;;;;;6185270;23;20249;-92
2022/11/02 13:06:01;;;;;;;16.70;3.63;;;15.10;99.90;;;;;;6272478;22;20026;-89
2022/11/02 13:30:02;;;;;;;14.18;2.70;;;15.10;99.90;;;;;;5808999;24;20025;-90
2022/11/02 13:32:42;;;;;;;15.50;3.00;;;15.10;99.90;;;;;;5936870;23;20018;-90
2022/11/02 13:35:29;;;;;;;14.55;3.40;;;15.10;99.90;;;;;;6085326;22;20007;-91
2022/11/02 13:38:23;;;;;;;15.55;3.58;;;15.20;99.90;;;;;;6244725;22;20055;-92
2022/11/02 13:41:20;;;;;;;;;;;;;;;;;;;;;
2022/11/02 13:44:13;;;;;;;10.97;3.43;;;15.30;99.90;;;;;;6270387;22;20095;-92
2022/11/02 13:46:45;;;;;;;11.38;2.58;;;;;;;;;;6245359;22;20003;-92
2022/11/02 13:49:20;;;;;;;18.17;3.35;;;;;;;;;;6243915;22;20375;-90
2022/11/02 13:52:29;;;;;;;;;;;;;;;;;;;;;
2022/11/02 13:58:56;;;;;;;17.58;3.47;;;15.40;99.90;;;;;;6244581;22;19996;-94
2022/11/02 14:01:43;;;;;;;18.77;3.25;;;15.40;99.90;;;;;;6244577;22;20010;-91
2022/11/02 14:05:08;;;;;;;;;;;;;;;;;;;;;
2022/11/02 14:08:12;;;;;;;;;;;;;;;;;;;;;
2022/11/02 14:16:57;;;;;;;15.07;3.03;;;;;;;;;;6258861;22;20069;-92
2022/11/02 14:19:31;;;;;;;23.27;4.30;;;15.70;99.90;;;;;;6272865;22;20007;-91
2022/11/02 14:22:00;;;;;;;16.65;3.20;;;;;;;;;;6272098;22;20042;-90
2022/11/02 14:24:32;;;;;;;17.25;3.70;;;;;;;;;;6271988;22;20009;-91
2022/11/02 14:27:11;;;;;;;21.20;3.40;;;15.70;99.90;;;;;;6272442;22;20011;-93
2022/11/02 14:29:53;;;;;;;15.63;3.38;;;15.70;99.90;;;;;;6272437;22;20015;-92
2022/11/02 14:32:39;;;;;;;18.88;3.35;;;15.70;99.90;;;;;;6273247;22;20031;-90
2022/11/02 14:35:26;;;;;;;15.35;3.60;;;15.60;99.90;;;;;;6272944;22;20007;-90
2022/11/02 14:38:23;;;;;;;25.42;3.00;;;15.60;99.90;;;;;;6282302;22;20000;-91
2022/11/02 14:41:10;;;;;;;22.77;4.30;;;15.60;99.90;;;;;;6285056;22;19987;-93
2022/11/02 14:44:16;;;;;;;17.98;3.90;;;12.60;99.90;;;;;;6282014;22;20004;-90
2022/11/02 14:46:56;;;;;;;15.52;3.15;;;;;;;;;;6274047;22;20010;-91
2022/11/02 14:50:21;;;;;;;;;;;;;;;;;;;;;
2022/11/02 14:53:31;;;;;;;14.52;3.67;;;15.60;99.90;;;;;;6260894;22;20087;-91
2022/11/02 14:56:07;;;;;;;12.82;3.40;;;;;;;;;;6260141;22;19999;-92
2022/11/02 14:58:47;;;;;;;18.65;3.70;;;15.60;99.90;;;;;;6272169;22;20306;-90
2022/11/02 15:01:16;;;;;;;21.15;3.85;;;15.60;99.90;;;;;;6272473;22;20035;-90
2022/11/02 15:03:43;;;;;;;21.65;3.40;;;;;;;;;;6272730;22;20004;-89
2022/11/02 15:06:22;;;;;;;20.75;3.53;;;19.40;99.90;;;;;;6273016;22;20015;-89
2022/11/02 15:08:57;;;;;;;18.70;3.08;;;15.50;99.90;;;;;;6272022;22;20011;-89
2022/11/02 15:12:08;;;;;;;;;;;;;;;;;;;;;
2022/11/02 15:14:34;;;;;;;15.38;3.33;;;;;;;;;;6271480;22;20122;-89
2022/11/02 15:17:01;;;;;;;15.10;3.00;;;15.50;99.90;;;;;;6271338;22;20003;-89
2022/11/02 15:19:52;;;;;;;15.50;3.08;;;15.50;99.90;;;;;;6271817;22;20061;-90
2022/11/02 15:22:47;;;;;;;22.50;4.47;;;13.40;99.90;;;;;;6231610;22;20348;-89
2022/11/02 15:25:19;;;;;;;18.50;3.35;;;15.70;99.90;;;;;;6271086;22;20011;-92
2022/11/02 15:28:25;;;;;;;18.35;3.88;;;15.50;99.90;;;;;;6273488;22;20076;-92
2022/11/02 15:30:51;;;;;;;16.15;3.63;;;;;;;;;;6272694;22;20022;-91
2022/11/02 15:34:15;;;;;;;;;;;;;;;;;;;;;
2022/11/02 15:36:46;;;;;;;16.20;3.33;;;15.40;99.90;;;;;;6253919;22;20086;-92
2022/11/02 15:39:14;;;;;;;19.25;3.65;;;;;;;;;;6273136;22;20440;-93
2022/11/02 15:41:44;;;;;;;;;;;15.30;99.90;;;;;;6273394;22;20023;-90
2022/11/02 15:44:55;;;;;;;19.52;3.95;;;15.40;99.90;;;;;;6273020;22;19906;-90
2022/11/02 15:47:26;;;;;;;15.43;4.40;;;;;;;;;;6271786;22;20004;-92
2022/11/02 15:50:32;;;;;;;16.60;3.65;;;15.10;99.90;;;;;;6272128;22;20099;-89
2022/11/02 15:53:35;;;;;;;18.73;3.92;;;19.10;99.90;;;;;;6271474;22;20035;-91
2022/11/02 15:56:30;;;;;;;22.15;3.85;;;15.30;99.90;;;;;;6270523;22;20007;-90
2022/11/02 15:59:05;;;;;;;21.15;4.50;;;15.30;99.90;;;;;;6180130;23;20092;-91
2022/11/02 16:01:31;;;;;;;22.98;4.82;;;;;;;;;;6178055;23;20005;-91
2022/11/02 16:04:00;;;;;;;31.65;9.48;;;15.30;99.90;;;;;;6255189;22;20000;-90
2022/11/02 16:06:35;;;;;;;31.90;7.72;;;13.00;99.90;;;;;;6271750;22;20011;-90
2022/11/02 16:09:22;;;;;;;20.85;5.05;;;15.30;99.90;;;;;;6271277;22;20439;-90
2022/11/02 16:12:38;;;;;;;21.35;3.60;;;15.20;99.90;;;;;;6271947;22;20459;-90
2022/11/02 16:15:22;;;;;;;25.17;5.13;;;15.20;99.90;;;;;;6262447;22;20027;-92
2022/11/02 16:17:51;;;;;;;22.80;4.70;;;;;;;;;;6272517;22;20078;-94
2022/11/02 16:21:02;;;;;;;22.85;4.70;;;15.20;99.90;;;;;;6272513;22;20459;-93
2022/11/02 16:23:33;;;;;;;26.23;4.32;;;15.20;99.90;;;;;;6270839;22;20014;-91
2022/11/02 16:26:04;;;;;;;23.90;4.47;;;15.20;99.90;;;;;;6271957;22;20007;-91
2022/11/02 16:28:32;;;;;;;18.95;4.07;;;15.10;99.90;;;;;;6273153;22;20010;-93
2022/11/02 16:32:02;;;;;;;15.00;4.20;;;15.00;99.90;;;;;;6272440;22;20546;-94
2022/11/02 16:34:30;;;;;;;18.70;4.15;;;14.90;99.90;;;;;;6272523;22;20008;-90
2022/11/02 16:37:00;;;;;;;;;;;14.80;99.90;;;;;;6273041;22;20011;-91
2022/11/02 16:39:36;;;;;;;;;;;;;;;;;;;;;
2022/11/02 16:42:34;;;;;;;17.30;4.43;;;14.60;99.90;;;;;;6274390;22;20395;-92
2022/11/02 16:45:03;;;;;;;19.92;4.50;;;;;;;;;;6181170;23;20430;-91
2022/11/02 16:47:48;;;;;;;18.42;4.50;;;14.50;99.90;;;;;;6259381;22;20004;-90
2022/11/02 16:50:27;;;;;;;24.67;4.63;;;14.40;99.90;;;;;;6273478;22;20081;-91
2022/11/02 16:53:28;;;;;;;18.25;3.92;;;14.40;99.90;;;;;;6272881;22;19999;-93
2022/11/02 16:56:26;;;;;;;23.17;4.93;;;14.40;99.90;;;;;;6158640;23;20005;-91
2022/11/02 16:59:18;;;;;;;18.90;4.57;;;14.30;99.90;;;;;;6204813;22;20493;-90
2022/11/02 17:01:46;;;;;;;20.10;4.43;;;;;;;;;;6273194;22;20014;-92
2022/11/02 17:04:24;;;;;;;23.80;4.18;;;14.20;99.90;;;;;;6275102;22;20078;-92
2022/11/02 17:06:57;;;;;;;23.83;4.90;;;14.20;99.90;;;;;;6271300;22;20020;-90
2022/11/02 17:09:53;;;;;;;23.17;6.38;;;14.20;99.90;;;;;;6270663;22;20019;-93
2022/11/02 17:12:41;;;;;;;17.25;3.55;;;14.10;99.90;;;;;;6166300;22;20507;-90
2022/11/02 17:15:42;;;;;;;26.05;4.63;;;14.20;99.90;;;;;;6275044;22;20007;-91
2022/11/02 17:21:22;;;;;;;22.75;4.80;;;;;;;;;;6255626;22;20004;-91
2022/11/02 17:23:48;;;;;;;21.88;4.00;;;;;;;;;;6269172;22;20007;-89
2022/11/02 17:26:14;;;;;;;24.90;5.05;;;;;;;;;;6268567;22;20000;-90
2022/11/02 17:28:58;;;;;;;;;;;;;;;;;;;;;
2022/11/02 17:31:27;;;;;;;18.85;4.57;;;;;;;;;;6272319;22;20091;-87
2022/11/02 17:40:30;;;;;;;31.83;11.52;;;;;;;;;;6097660;23;20007;-91
2022/11/02 17:42:59;;;;;;;29.75;8.93;;;;;;;;;;6235923;22;20008;-87
2022/11/02 17:45:45;;;;;;;19.23;5.70;;;;;;;;;;6237411;23;20008;-88
2022/11/02 17:48:11;;;;;;;28.70;5.82;;;;;;;;;;6213570;23;20391;-88
2022/11/02 17:50:39;;;;;;;20.70;5.28;;;10.80;99.90;;;;;;6213075;23;20039;-88
2022/11/02 17:53:05;;;;;;;21.38;4.70;;;;;;;;;;6213609;23;20007;-88
2022/11/02 17:55:33;;;;;;;26.60;5.53;;;14.00;99.90;;;;;;6212305;23;20004;-87
2022/11/02 17:58:00;;;;;;;23.63;5.60;;;14.00;99.90;;;;;;6239689;23;20441;-91
2022/11/02 18:00:27;;;;;;;23.33;4.65;;;14.00;99.90;;;;;;6215078;23;20012;-87
2022/11/02 18:02:57;;;;;;;23.95;4.90;;;14.00;99.90;;;;;;6214546;23;20008;-88
2022/11/02 18:05:34;;;;;;;32.58;5.85;;;14.00;99.90;;;;;;6238134;23;20073;-87
2022/11/02 18:08:00;;;;;;;26.08;4.95;;;;;;;;;;6237154;23;20019;-88
2022/11/02 18:10:34;;;;;;;23.90;5.03;;;14.00;99.90;;;;;;6237231;23;20020;-89
2022/11/02 18:13:00;;;;;;;29.83;5.70;;;;;;;;;;6237582;23;20050;-87
2022/11/02 18:15:28;;;;;;;25.23;5.43;;;14.00;99.90;;;;;;6238012;23;20014;-87
2022/11/02 18:17:55;;;;;;;21.45;4.43;;;;;;;;;;6270708;22;20007;-88
2022/11/02 18:20:22;;;;;;;20.88;4.75;;;13.90;99.90;;;;;;6274208;22;20023;-88
2022/11/02 18:22:48;;;;;;;26.75;5.10;;;;;;;;;;6270709;22;20006;-88
2022/11/02 18:25:16;;;;;;;20.45;5.20;;;13.90;99.90;;;;;;6269837;22;20036;-88
2022/11/02 18:27:42;;;;;;;27.63;5.15;;;;;;;;;;6269399;22;20026;-88
2022/11/02 18:30:11;;;;;;;23.33;6.05;;;11.30;99.90;;;;;;6267020;22;20347;-87
2022/11/02 18:32:37;;;;;;;26.20;7.13;;;15.20;99.90;;;;;;6264423;22;20027;-88
2022/11/02 18:35:06;;;;;;;24.65;6.20;;;13.90;99.90;;;;;;6269711;22;20039;-86
2022/11/02 18:37:32;;;;;;;22.17;5.72;;;;;;;;;;6267328;22;20066;-88
2022/11/02 18:39:58;;;;;;;19.85;5.22;;;;;;;;;;6268203;22;19999;-88
2022/11/02 18:42:24;;;;;;;24.95;5.50;;;10.70;99.90;;;;;;6267783;22;20027;-90
2022/11/02 18:44:50;;;;;;;26.88;5.43;;;;;;;;;;6275419;22;20004;-89
2022/11/02 18:47:16;;;;;;;18.70;4.97;;;;;;;;;;6277935;22;20007;-89
2022/11/02 18:49:42;;;;;;;18.83;4.90;;;;;;;;;;6273408;22;20026;-88
2022/11/02 18:52:09;;;;;;;15.63;4.60;;;;;;;;;;6271720;22;20018;-87
2022/11/02 18:54:35;;;;;;;24.85;5.03;;;;;;;;;;6269508;22;20082;-89
2022/11/02 18:57:01;;;;;;;23.83;5.38;;;;;;;;;;6270218;22;20431;-88
2022/11/02 18:59:27;;;;;;;23.58;4.88;;;;;;;;;;6270288;22;20000;-90
2022/11/02 19:01:53;;;;;;;20.92;5.05;;;;;;;;;;6271047;22;20030;-90
2022/11/02 19:04:19;;;;;;;23.10;4.50;;;;;;;;;;6270442;22;20008;-88
2022/11/02 19:09:31;;;;;;;23.15;4.93;;;13.60;99.90;;;;;;6271248;22;20050;-87
2022/11/02 19:12:00;;;;;;;24.02;4.88;;;16.60;99.90;;;;;;6271030;22;20010;-89
2022/11/02 19:14:31;;;;;;;20.27;3.95;;;13.90;99.90;;;;;;6271305;22;20007;-87
2022/11/02 19:16:57;;;;;;;22.15;4.40;;;;;;;;;;6269860;22;20008;-88
2022/11/02 19:19:23;;;;;;;17.83;3.67;;;;;;;;;;6270751;22;20133;-87
2022/11/02 19:21:49;;;;;;;17.00;4.00;;;;;;;;;;6268857;22;20099;-87
2022/11/02 19:24:15;;;;;;;21.73;4.43;;;;;;;;;;6269646;22;20091;-87
2022/11/02 19:26:41;;;;;;;24.25;4.55;;;;;;;;;;6271676;22;20007;-87
2022/11/02 19:29:07;;;;;;;19.75;4.22;;;;;;;;;;6272611;22;20436;-88
2022/11/02 19:31:34;;;;;;;25.98;4.22;;;14.50;99.90;;;;;;6271534;22;20560;-86
2022/11/02 19:34:00;;;;;;;16.17;4.10;;;;;;;;;;6269528;22;20077;-87
2022/11/02 19:36:26;;;;;;;24.90;5.10;;;;;;;;;;6269545;22;20011;-88
2022/11/02 19:38:52;;;;;;;18.85;5.15;;;;;;;;;;6269628;22;19999;-88